createdAt,value
2022-10-12T00:02:37.275Z,4.02
2022-10-12T00:07:41.415Z,4.04
2022-10-12T00:12:45.610Z,4.17
2022-10-12T00:17:49.801Z,4.19
2022-10-12T00:22:53.937Z,4.22
2022-10-12T00:27:58.082Z,4.18
2022-10-12T00:33:02.270Z,4.00
2022-10-12T00:38:06.405Z,3.83
2022-10-12T00:43:10.593Z,3.79
2022-10-12T00:48:12.821Z,3.73
2022-10-12T00:53:17.019Z,3.65
2022-10-12T00:58:21.140Z,3.65
2022-10-12T01:03:25.379Z,3.56
2022-10-12T01:08:29.493Z,3.57
2022-10-12T01:13:33.658Z,3.57
2022-10-12T01:18:37.844Z,3.53
2022-10-12T01:23:42.134Z,3.46
2022-10-12T01:28:46.289Z,3.44
2022-10-12T01:33:50.345Z,3.42
2022-10-12T01:38:54.500Z,3.39
2022-10-12T01:43:58.657Z,3.39
2022-10-12T01:49:02.829Z,3.34
2022-10-12T01:54:07.006Z,3.39
2022-10-12T01:59:11.144Z,3.51
2022-10-12T02:04:15.336Z,3.50
2022-10-12T02:09:19.502Z,3.57
2022-10-12T02:19:27.813Z,3.50
2022-10-12T02:24:31.999Z,3.47
2022-10-12T02:29:36.128Z,3.38
2022-10-12T02:34:40.288Z,3.27
2022-10-12T02:39:44.449Z,3.25
2022-10-12T02:44:48.664Z,3.31
2022-10-12T02:49:52.811Z,3.41
2022-10-12T02:54:56.955Z,3.44
2022-10-12T03:00:01.162Z,3.55
2022-10-12T03:05:05.286Z,3.58
2022-10-12T03:10:09.470Z,3.49
2022-10-12T03:15:13.622Z,3.37
2022-10-12T03:20:18.093Z,3.25
2022-10-12T03:25:21.950Z,3.19
2022-10-12T03:30:26.121Z,3.22
2022-10-12T03:35:30.293Z,3.16
2022-10-12T03:40:34.462Z,2.98
2022-10-12T03:45:38.635Z,3.02
2022-10-12T03:50:42.760Z,3.21
2022-10-12T03:55:46.934Z,3.20
2022-10-12T04:00:51.115Z,3.15
2022-10-12T04:05:55.278Z,3.10
2022-10-12T04:10:59.455Z,3.15
2022-10-12T04:16:03.610Z,3.14
2022-10-12T04:21:07.776Z,3.13
2022-10-12T04:26:11.934Z,3.08
2022-10-12T04:31:16.103Z,3.16
2022-10-12T04:36:20.266Z,3.24
2022-10-12T04:41:24.405Z,3.27
2022-10-12T04:46:28.585Z,3.43
2022-10-12T04:51:32.728Z,3.52
2022-10-12T04:56:36.923Z,3.50
2022-10-12T05:01:41.184Z,3.52
2022-10-12T05:06:45.259Z,3.68
2022-10-12T05:11:49.407Z,3.68
2022-10-12T05:16:53.602Z,3.74
2022-10-12T05:21:57.739Z,3.75
2022-10-12T05:27:01.895Z,3.80
2022-10-12T05:32:06.048Z,3.83
2022-10-12T05:37:10.224Z,3.81
2022-10-12T05:42:14.381Z,3.69
2022-10-12T05:47:18.550Z,3.60
2022-10-12T05:52:22.705Z,3.57
2022-10-12T05:57:26.857Z,3.55
2022-10-12T06:02:31.120Z,3.39
2022-10-12T06:07:35.217Z,3.25
2022-10-12T06:12:39.615Z,3.19
2022-10-12T06:17:41.668Z,3.11
2022-10-12T06:22:45.814Z,3.06
2022-10-12T06:27:49.994Z,3.17
2022-10-12T06:32:54.111Z,3.09
2022-10-12T06:37:58.276Z,3.13
2022-10-12T06:43:02.470Z,3.36
2022-10-12T06:48:04.749Z,3.40
2022-10-12T06:53:08.884Z,3.58
2022-10-12T06:58:13.055Z,3.74
2022-10-12T07:03:17.248Z,3.92
2022-10-12T07:08:21.374Z,4.11
2022-10-12T07:13:25.593Z,4.26
2022-10-12T07:18:29.743Z,4.39
2022-10-12T07:23:33.890Z,4.48
2022-10-12T07:28:38.095Z,4.66
2022-10-12T07:33:42.246Z,4.72
2022-10-12T07:38:46.363Z,4.81
2022-10-12T07:43:50.552Z,4.92
2022-10-12T07:48:54.714Z,5.13
2022-10-12T07:53:58.876Z,5.28
2022-10-12T07:59:03.049Z,5.45
2022-10-12T08:04:07.211Z,5.75
2022-10-12T08:09:11.348Z,6.00
2022-10-12T08:14:15.543Z,6.28
2022-10-12T08:19:19.673Z,6.54
2022-10-12T08:24:24.041Z,6.85
2022-10-12T08:29:28.015Z,7.20
2022-10-12T08:34:32.138Z,7.58
2022-10-12T08:39:36.306Z,7.86
2022-10-12T08:44:40.501Z,8.14
2022-10-12T08:49:49.428Z,8.30
2022-10-12T08:59:52.930Z,8.74
2022-10-12T09:04:57.110Z,8.98
2022-10-12T09:10:01.309Z,9.35
2022-10-12T09:15:05.425Z,9.51
2022-10-12T09:20:09.572Z,9.67
2022-10-12T09:25:13.745Z,9.81
2022-10-12T09:30:17.904Z,9.89
2022-10-12T09:35:22.076Z,9.97
2022-10-12T09:40:26.270Z,10.20
2022-10-12T09:45:30.411Z,10.55
2022-10-12T09:50:34.547Z,10.92
2022-10-12T09:55:38.689Z,11.20
2022-10-12T10:00:42.887Z,11.45
2022-10-12T10:05:47.339Z,11.69
2022-10-12T10:10:51.184Z,11.84
2022-10-12T10:15:55.388Z,12.12
2022-10-12T10:20:59.538Z,12.44
2022-10-12T10:26:03.768Z,12.64
2022-10-12T10:31:07.842Z,12.64
2022-10-12T10:36:12.011Z,12.91
2022-10-12T10:41:16.152Z,13.05
2022-10-12T10:46:20.309Z,13.37
2022-10-12T10:56:28.648Z,13.56
2022-10-12T11:01:32.929Z,13.86
2022-10-12T11:06:36.965Z,13.94
2022-10-12T11:11:41.139Z,14.05
2022-10-12T11:16:45.266Z,14.20
2022-10-12T11:21:49.433Z,14.40
2022-10-12T11:26:53.584Z,14.64
2022-10-12T11:31:57.762Z,15.12
2022-10-12T11:37:18.715Z,15.24
2022-10-12T11:42:21.317Z,15.24
2022-10-12T11:47:10.242Z,15.35
2022-10-12T11:52:14.436Z,15.51
2022-10-12T11:57:18.603Z,15.77
2022-10-12T12:02:22.717Z,16.03
2022-10-12T12:07:26.916Z,16.09
2022-10-12T12:12:31.063Z,15.90
2022-10-12T12:17:33.323Z,15.79
2022-10-12T12:27:41.625Z,16.15
2022-10-12T12:32:45.789Z,16.30
2022-10-12T12:37:49.960Z,16.37
2022-10-12T12:42:54.124Z,16.20
2022-10-12T12:47:58.324Z,16.31
2022-10-12T12:53:02.417Z,16.03
2022-10-12T12:58:17.598Z,15.82
2022-10-12T13:08:14.943Z,15.80
2022-10-12T13:13:19.123Z,15.70
2022-10-12T13:18:45.771Z,15.66
2022-10-12T13:23:27.472Z,15.71
2022-10-12T13:28:31.698Z,15.81
2022-10-12T13:33:35.754Z,15.86
2022-10-12T13:38:39.927Z,16.16
2022-10-12T13:43:44.090Z,16.26
2022-10-12T13:48:59.307Z,16.27
2022-10-12T13:53:52.410Z,16.21
2022-10-12T13:58:56.546Z,16.25
2022-10-12T14:04:00.697Z,16.30
2022-10-12T14:09:04.866Z,16.88
2022-10-12T14:14:09.002Z,16.83
2022-10-12T14:19:13.214Z,16.78
2022-10-12T14:24:17.344Z,16.81
2022-10-12T14:29:21.512Z,17.28
2022-10-12T14:34:25.654Z,17.30
2022-10-12T14:39:29.820Z,17.48
2022-10-12T14:44:33.994Z,17.40
2022-10-12T14:49:38.172Z,16.84
2022-10-12T14:54:42.275Z,16.58
2022-10-12T14:59:46.428Z,16.38
2022-10-12T15:04:50.693Z,16.26
2022-10-12T15:09:54.714Z,16.11
2022-10-12T15:14:58.880Z,16.07
2022-10-12T15:20:03.063Z,16.11
2022-10-12T15:25:07.247Z,15.81
2022-10-12T15:30:11.399Z,15.60
2022-10-12T15:35:15.559Z,15.33
2022-10-12T15:40:19.710Z,15.02
2022-10-12T15:45:23.849Z,14.91
2022-10-12T15:50:28.031Z,14.94
2022-10-12T15:55:32.194Z,14.82
2022-10-12T16:00:36.504Z,14.52
2022-10-12T16:05:40.593Z,14.37
2022-10-12T16:10:44.711Z,14.18
2022-10-12T16:15:48.802Z,13.91
2022-10-12T16:20:54.112Z,13.50
2022-10-12T16:25:57.407Z,13.15
2022-10-12T16:31:01.291Z,12.89
2022-10-12T16:36:05.450Z,12.75
2022-10-12T16:41:09.663Z,12.62
2022-10-12T16:46:13.803Z,12.52
2022-10-12T16:51:20.197Z,12.28
2022-10-12T16:56:22.152Z,12.20
2022-10-12T17:01:26.276Z,12.17
2022-10-12T17:06:30.426Z,12.04
2022-10-12T17:11:34.582Z,11.93
2022-10-12T17:16:38.743Z,11.67
2022-10-12T17:21:42.937Z,11.45
2022-10-12T17:26:47.063Z,11.29
2022-10-12T17:31:51.198Z,11.18
2022-10-12T17:36:55.403Z,11.04
2022-10-12T17:41:59.560Z,10.86
2022-10-12T17:47:01.809Z,10.69
2022-10-12T17:52:05.982Z,10.62
2022-10-12T17:57:10.121Z,10.43
2022-10-12T18:02:14.292Z,10.33
2022-10-12T18:07:18.871Z,10.24
2022-10-12T18:12:22.637Z,10.18
2022-10-12T18:17:26.770Z,10.14
2022-10-12T18:22:30.969Z,10.01
2022-10-12T18:27:35.101Z,9.97
2022-10-12T18:32:39.264Z,9.95
2022-10-12T18:37:43.429Z,9.88
2022-10-12T18:47:51.770Z,9.80
2022-10-12T18:52:55.957Z,9.63
2022-10-12T18:58:00.088Z,9.46
2022-10-12T19:08:08.420Z,9.19
2022-10-12T19:13:12.574Z,9.08
2022-10-12T19:18:16.736Z,8.90
2022-10-12T19:23:20.952Z,8.76
2022-10-12T19:28:25.132Z,8.69
2022-10-12T19:33:29.276Z,8.51
2022-10-12T19:38:33.421Z,8.51
2022-10-12T19:43:37.591Z,8.56
2022-10-12T19:48:41.769Z,8.51
2022-10-12T19:53:45.855Z,8.45
2022-10-12T19:58:50.080Z,8.28
2022-10-12T20:03:54.230Z,8.13
2022-10-12T20:08:58.489Z,8.10
2022-10-12T20:14:02.512Z,8.17
2022-10-12T20:19:07.276Z,8.25
2022-10-12T20:24:10.832Z,8.28
2022-10-12T20:29:15.026Z,8.26
2022-10-12T20:34:19.185Z,8.21
2022-10-12T20:39:23.310Z,8.13
2022-10-12T20:44:27.497Z,8.01
2022-10-12T20:49:31.682Z,7.89
2022-10-12T20:54:35.822Z,7.72
2022-10-12T20:59:39.950Z,7.61
2022-10-12T21:04:44.155Z,7.56
2022-10-12T21:09:48.296Z,7.53
2022-10-12T21:14:52.471Z,7.46
2022-10-12T21:19:56.838Z,7.41
2022-10-12T21:25:00.793Z,7.40
2022-10-12T21:30:04.953Z,7.34
2022-10-12T21:35:09.090Z,7.34
2022-10-12T21:40:13.280Z,7.30
2022-10-12T21:45:17.434Z,7.24
2022-10-12T21:50:21.592Z,7.20
2022-10-12T21:55:25.774Z,7.16
2022-10-12T22:00:29.952Z,7.12
2022-10-12T22:05:34.092Z,7.01
2022-10-12T22:10:38.276Z,6.93
2022-10-12T22:15:42.422Z,6.91
2022-10-12T22:20:46.575Z,6.82
2022-10-12T22:25:50.705Z,6.81
2022-10-12T22:30:54.894Z,6.77
2022-10-12T22:35:59.035Z,6.80
2022-10-12T22:41:03.252Z,6.89
2022-10-12T22:46:07.378Z,6.90
2022-10-12T22:51:11.580Z,6.93
2022-10-12T22:56:15.724Z,7.00
2022-10-12T23:01:19.883Z,7.11
2022-10-12T23:06:24.022Z,7.24
2022-10-12T23:11:28.230Z,7.31
2022-10-12T23:16:30.461Z,7.42
2022-10-12T23:21:34.635Z,7.44
2022-10-12T23:26:38.787Z,7.50
2022-10-12T23:31:42.991Z,7.57
2022-10-12T23:36:47.175Z,7.64
2022-10-12T23:41:51.278Z,7.69
2022-10-12T23:46:53.522Z,7.75
2022-10-12T23:51:57.728Z,7.84
2022-10-12T23:57:01.888Z,7.92
